createdAt,value
2022-11-29T00:00:36.910Z,9.93
2022-11-29T00:05:39.264Z,9.57
2022-11-29T00:10:41.553Z,12.03
2022-11-29T00:15:44.275Z,9.47
2022-11-29T00:20:46.458Z,9.70
2022-11-29T00:25:48.777Z,10.93
2022-11-29T00:30:51.288Z,10.17
2022-11-29T00:35:53.517Z,8.97
2022-11-29T00:40:55.759Z,8.90
2022-11-29T00:45:58.036Z,11.50
2022-11-29T00:51:00.451Z,10.23
2022-11-29T00:56:03.348Z,9.00
2022-11-29T01:01:05.993Z,12.97
2022-11-29T01:06:11.425Z,11.03
2022-11-29T01:11:17.297Z,15.27
2022-11-29T01:16:19.750Z,9.30
2022-11-29T01:21:24.294Z,11.43
2022-11-29T01:26:28.313Z,9.93
2022-11-29T01:31:37.825Z,9.00
2022-11-29T01:36:40.093Z,11.87
2022-11-29T01:41:42.372Z,8.83
2022-11-29T01:46:46.507Z,9.70
2022-11-29T01:51:52.478Z,12.10
2022-11-29T01:56:54.858Z,6.73
2022-11-29T02:02:01.038Z,9.33
2022-11-29T02:07:03.627Z,10.83
2022-11-29T02:12:24.041Z,10.83
2022-11-29T02:17:45.254Z,11.40
2022-11-29T02:23:03.245Z,9.00
2022-11-29T02:28:23.993Z,9.23
2022-11-29T02:33:39.222Z,9.07
2022-11-29T02:38:59.996Z,10.93
2022-11-29T02:44:29.105Z,8.77
2022-11-29T02:49:40.133Z,9.30
2022-11-29T02:54:52.837Z,8.37
2022-11-29T03:00:08.631Z,11.90
2022-11-29T03:05:29.020Z,13.03
2022-11-29T03:10:39.433Z,13.00
2022-11-29T03:15:46.370Z,13.40
2022-11-29T03:21:16.766Z,13.80
2022-11-29T03:26:30.279Z,12.77
2022-11-29T03:31:34.472Z,12.80
2022-11-29T03:37:01.693Z,16.17
2022-11-29T03:42:08.390Z,15.33
2022-11-29T03:47:15.141Z,14.27
2022-11-29T03:52:36.100Z,13.57
2022-11-29T03:58:04.131Z,14.93
2022-11-29T04:03:24.349Z,15.10
2022-11-29T04:08:35.682Z,15.47
2022-11-29T04:13:56.492Z,14.37
2022-11-29T04:19:23.775Z,15.77
2022-11-29T04:24:50.538Z,16.20
2022-11-29T04:30:07.356Z,19.03
2022-11-29T04:35:34.702Z,16.17
2022-11-29T04:41:10.961Z,16.63
2022-11-29T04:46:13.122Z,14.97
2022-11-29T04:51:47.567Z,14.90
2022-11-29T04:56:53.357Z,15.27
2022-11-29T05:02:23.557Z,17.73
2022-11-29T05:18:28.901Z,12.00
2022-11-29T05:24:02.460Z,13.73
2022-11-29T05:29:16.934Z,13.70
2022-11-29T05:34:38.244Z,10.83
2022-11-29T05:39:46.521Z,11.23
2022-11-29T05:44:50.823Z,25.37
2022-11-29T05:49:57.810Z,13.20
2022-11-29T05:55:15.389Z,12.97
2022-11-29T06:00:19.143Z,14.43
2022-11-29T06:05:56.910Z,13.77
2022-11-29T06:11:13.237Z,15.03
2022-11-29T06:16:41.643Z,15.60
2022-11-29T06:22:07.339Z,14.43
2022-11-29T06:27:31.949Z,17.50
2022-11-29T06:32:57.280Z,14.63
2022-11-29T06:38:14.382Z,14.70
2022-11-29T06:43:17.429Z,15.93
2022-11-29T06:48:26.689Z,12.57
2022-11-29T06:53:47.335Z,14.75
2022-11-29T06:59:04.397Z,10.83
2022-11-29T07:04:29.682Z,15.57
2022-11-29T07:09:34.869Z,14.00
2022-11-29T07:14:37.332Z,15.70
2022-11-29T07:20:01.308Z,15.57
2022-11-29T07:25:17.709Z,15.83
2022-11-29T07:30:23.193Z,16.63
2022-11-29T07:35:44.555Z,21.13
2022-11-29T07:41:11.333Z,18.40
2022-11-29T07:46:13.700Z,19.07
2022-11-29T07:51:16.022Z,18.47
2022-11-29T07:56:18.236Z,20.93
2022-11-29T08:01:20.487Z,25.87
2022-11-29T08:06:26.790Z,20.17
2022-11-29T08:11:28.982Z,16.83
2022-11-29T08:16:31.651Z,21.20
2022-11-29T08:21:33.867Z,22.40
2022-11-29T08:26:36.064Z,17.17
2022-11-29T08:31:38.409Z,22.33
2022-11-29T08:36:40.694Z,22.23
2022-11-29T08:41:43.246Z,17.20
2022-11-29T08:47:09.744Z,15.43
2022-11-29T08:52:31.510Z,22.73
2022-11-29T08:57:42.063Z,20.43
2022-11-29T09:02:44.681Z,19.33
2022-11-29T09:07:47.220Z,23.50
2022-11-29T09:12:50.814Z,23.53
2022-11-29T09:17:53.004Z,25.43
2022-11-29T09:22:55.299Z,27.13
2022-11-29T09:28:03.081Z,21.17
2022-11-29T09:33:05.590Z,19.63
2022-11-29T09:38:07.808Z,22.60
2022-11-29T09:43:17.143Z,25.93
2022-11-29T09:48:32.913Z,20.55
2022-11-29T09:53:47.308Z,21.97
2022-11-29T09:59:00.915Z,22.13
2022-11-29T10:04:05.917Z,25.27
2022-11-29T10:09:23.270Z,22.50
2022-11-29T10:14:31.515Z,26.57
2022-11-29T10:20:12.192Z,24.27
2022-11-29T10:25:23.073Z,23.77
2022-11-29T10:30:25.359Z,23.20
2022-11-29T10:35:27.687Z,24.23
2022-11-29T10:40:35.316Z,23.50
2022-11-29T10:45:43.929Z,20.43
2022-11-29T10:50:48.987Z,26.27
2022-11-29T10:56:13.180Z,22.93
2022-11-29T11:01:17.415Z,24.03
2022-11-29T11:06:21.677Z,29.13
2022-11-29T11:11:29.843Z,20.73
2022-11-29T11:16:37.594Z,25.07
2022-11-29T11:21:40.083Z,26.50
2022-11-29T11:26:44.702Z,24.33
2022-11-29T11:31:58.420Z,23.67
2022-11-29T11:37:16.057Z,27.27
2022-11-29T11:42:43.241Z,25.60
2022-11-29T11:47:54.324Z,19.57
2022-11-29T11:52:59.622Z,26.77
2022-11-29T11:58:09.763Z,21.73
2022-11-29T12:03:33.520Z,19.63
2022-11-29T12:08:36.830Z,17.67
2022-11-29T12:13:42.087Z,19.13
2022-11-29T12:18:50.717Z,17.53
2022-11-29T12:24:20.662Z,17.93
2022-11-29T12:29:23.574Z,24.20
2022-11-29T12:34:48.158Z,26.27
2022-11-29T12:40:16.885Z,17.00
2022-11-29T12:45:34.512Z,28.13
2022-11-29T12:51:05.302Z,19.30
2022-11-29T12:56:23.853Z,19.13
2022-11-29T13:01:58.997Z,19.03
2022-11-29T13:07:15.277Z,18.53
2022-11-29T13:12:42.582Z,19.43
2022-11-29T13:18:03.463Z,24.80
2022-11-29T13:23:45.939Z,20.57
2022-11-29T13:28:48.747Z,21.80
2022-11-29T13:34:22.629Z,29.43
2022-11-29T13:39:49.816Z,25.27
2022-11-29T13:45:03.650Z,28.03
2022-11-29T13:50:41.636Z,25.53
2022-11-29T13:55:46.919Z,27.90
2022-11-29T14:00:50.837Z,23.87
2022-11-29T14:06:03.379Z,19.23
2022-11-29T14:11:14.975Z,30.57
2022-11-29T14:16:21.758Z,24.23
2022-11-29T14:21:24.048Z,23.63
2022-11-29T14:26:28.889Z,23.33
2022-11-29T14:31:50.936Z,22.30
2022-11-29T14:37:20.014Z,26.37
2022-11-29T14:42:29.919Z,25.70
2022-11-29T14:47:38.465Z,20.13
2022-11-29T14:52:54.041Z,21.87
2022-11-29T14:58:03.933Z,21.33
2022-11-29T15:03:29.329Z,25.00
2022-11-29T15:08:42.431Z,22.00
2022-11-29T15:14:12.943Z,25.87
2022-11-29T15:19:33.881Z,25.37
2022-11-29T15:24:57.921Z,20.93
2022-11-29T15:30:18.604Z,24.47
2022-11-29T15:35:21.127Z,20.83
2022-11-29T15:40:34.779Z,19.43
2022-11-29T15:45:38.870Z,21.93
2022-11-29T15:50:46.020Z,19.73
2022-11-29T15:55:50.400Z,25.90
2022-11-29T16:00:53.280Z,14.60
2022-11-29T16:06:21.666Z,22.53
2022-11-29T16:11:25.771Z,20.50
2022-11-29T16:16:28.971Z,17.80
2022-11-29T16:21:32.728Z,19.27
2022-11-29T16:26:38.623Z,21.83
2022-11-29T16:31:40.843Z,27.40
2022-11-29T16:36:43.134Z,25.90
2022-11-29T16:42:05.818Z,26.20
2022-11-29T16:47:28.731Z,33.50
2022-11-29T16:52:33.818Z,17.33
2022-11-29T16:57:36.503Z,18.93
2022-11-29T17:02:38.878Z,19.97
2022-11-29T17:07:41.579Z,15.10
2022-11-29T17:12:47.974Z,19.27
2022-11-29T17:17:50.895Z,14.70
2022-11-29T17:23:00.032Z,14.27
2022-11-29T17:28:03.370Z,19.77
2022-11-29T17:33:05.821Z,15.57
2022-11-29T17:38:08.315Z,20.67
2022-11-29T17:43:13.934Z,21.30
2022-11-29T17:48:18.918Z,16.83
2022-11-29T17:53:22.522Z,15.00
2022-11-29T17:58:25.859Z,15.63
2022-11-29T18:03:28.215Z,20.90
2022-11-29T18:08:30.531Z,18.07
2022-11-29T18:13:32.926Z,17.30
2022-11-29T18:18:37.606Z,22.27
2022-11-29T18:23:43.630Z,17.83
2022-11-29T18:28:46.708Z,17.97
2022-11-29T18:33:52.593Z,18.57
2022-11-29T18:39:23.322Z,14.93
2022-11-29T18:44:36.962Z,17.53
2022-11-29T18:49:42.181Z,15.40
2022-11-29T18:54:50.691Z,16.63
2022-11-29T18:59:53.435Z,19.75
2022-11-29T19:04:56.259Z,17.17
2022-11-29T19:09:59.172Z,19.27
2022-11-29T19:15:10.519Z,21.87
2022-11-29T19:20:13.879Z,16.73
2022-11-29T19:25:16.172Z,16.10
2022-11-29T19:30:18.562Z,16.67
2022-11-29T19:35:20.747Z,17.60
2022-11-29T19:40:22.975Z,18.27
2022-11-29T19:45:25.411Z,17.70
2022-11-29T19:50:28.755Z,15.63
2022-11-29T19:55:30.937Z,27.27
2022-11-29T20:00:33.152Z,21.57
2022-11-29T20:05:35.302Z,18.33
2022-11-29T20:10:37.425Z,14.33
2022-11-29T20:15:39.631Z,16.13
2022-11-29T20:20:41.973Z,15.17
2022-11-29T20:25:49.462Z,22.40
2022-11-29T20:30:52.675Z,15.17
2022-11-29T20:36:04.211Z,16.20
2022-11-29T20:41:15.960Z,15.83
2022-11-29T20:46:18.409Z,13.27
2022-11-29T20:51:29.237Z,20.93
2022-11-29T20:56:33.096Z,16.03
2022-11-29T21:01:35.349Z,14.10
2022-11-29T21:06:38.654Z,20.20
2022-11-29T21:11:41.138Z,37.27
2022-11-29T21:16:43.528Z,14.37
2022-11-29T21:22:02.357Z,21.93
2022-11-29T21:27:04.954Z,20.38
2022-11-29T21:32:07.518Z,21.23
2022-11-29T21:37:09.624Z,27.93
2022-11-29T21:42:12.521Z,20.67
2022-11-29T21:47:14.972Z,20.67
2022-11-29T21:52:22.245Z,21.20
2022-11-29T21:57:25.015Z,21.63
2022-11-29T22:02:27.608Z,24.37
2022-11-29T22:07:29.995Z,19.00
2022-11-29T22:12:34.821Z,19.90
2022-11-29T22:17:37.392Z,20.10
2022-11-29T22:22:39.673Z,18.90
2022-11-29T22:27:41.844Z,17.77
2022-11-29T22:32:44.044Z,18.77
2022-11-29T22:37:46.232Z,19.00
2022-11-29T22:42:48.372Z,16.87
2022-11-29T22:47:50.581Z,15.17
2022-11-29T22:52:53.964Z,16.53
2022-11-29T22:57:56.207Z,13.83
2022-11-29T23:02:58.367Z,21.27
2022-11-29T23:08:00.857Z,22.43
2022-11-29T23:13:03.259Z,21.57
2022-11-29T23:18:05.422Z,21.17
2022-11-29T23:23:07.703Z,21.67
2022-11-29T23:28:10.020Z,22.77
2022-11-29T23:33:12.272Z,18.40
2022-11-29T23:38:15.373Z,21.70
2022-11-29T23:43:17.510Z,20.93
2022-11-29T23:48:19.742Z,21.20
2022-11-29T23:53:21.989Z,22.97
2022-11-29T23:58:24.291Z,21.23
